Latest Weather Observations for Kingaroy

IDQ60901

Issued at 10:11 am EST Sunday 25 September 2016 (issued every 10 minutes, with the page automatically refreshed every 10 minutes)

About weather observations | Map of Brisbane area stations | Latest observations for Brisbane area | Other Formats
Station Details ID: 040922 Name: KINGAROY AIRPORT Lat: -26.57 Lon: 151.84 Height: 433.67 m
Data from the previous 72 hours. | See also: Recent months at Kingaroy
Date/Time
EST
Temp
°C
App
Temp
°C
Dew
Point
°C
Rel
Hum
%
Delta-T
°C
Wind Press
QNH
hPa
Press
MSL
hPa
Rain since
9am
mm
Dir  Spd
km/h
Gust
km/h
Spd
kts
Gust
kts
25/10:00am 22.6 20.5 11.0 48 6.6 NW 13 20 7 11 1011.2 1010.2 0.0
25/09:30am 20.8 20.5 13.3 62 4.4 NNW 7 11 4 6 1011.3 1010.3 0.0
25/09:00am 17.7 17.2 11.9 69 3.3 NW 6 7 3 4 1011.8 1010.7 0.0
25/08:30am 16.0 16.8 12.4 79 2.0 CALM 0 0 0 0 1011.6 1010.5 0.0
25/08:00am 14.0 13.5 11.9 87 1.2 NNW 6 7 3 4 1011.7 1010.6 0.0
25/07:30am 13.1 13.1 11.2 88 1.0 NW 2 6 1 3 1011.5 1010.4 0.0
25/07:00am 11.7 11.8 10.3 91 0.7 CALM 0 0 0 0 1011.9 1010.8 0.0
25/06:30am 10.0 8.5 9.2 95 0.4 S 7 11 4 6 1012.1 1011.0 0.0
25/06:00am 8.2 7.6 7.3 94 0.4 CALM 0 0 0 0 1011.6 1010.5 0.0
25/05:30am 7.9 6.8 7.1 95 0.4 S 2 6 1 3 1011.0 1010.0 0.0
25/05:00am 7.9 7.2 7.1 95 0.4 CALM 0 0 0 0 1010.6 1009.6 0.0
25/04:30am 7.9 6.4 7.0 94 0.4 S 4 6 2 3 1010.8 1009.8 0.0
25/04:00am 8.4 6.6 7.8 96 0.3 SSE 7 9 4 5 1010.6 1009.6 0.0
25/03:30am 7.6 5.5 6.5 93 0.5 SSW 7 9 4 5 1010.3 1009.2 0.0
25/03:00am 8.1 7.4 6.9 92 0.6 CALM 0 0 0 0 1009.9 1008.8 0.0
25/02:30am 8.4 7.8 7.3 93 0.5 CALM 0 0 0 0 1010.2 1009.1 0.0
25/02:00am 8.8 8.2 7.4 91 0.7 CALM 0 0 0 0 1010.4 1009.4 0.0
25/01:30am 9.1 8.5 7.5 90 0.8 CALM 0 0 0 0 1010.4 1009.4 0.0
25/01:00am 9.3 8.0 7.6 89 0.8 SSW 4 7 2 4 1010.5 1009.5 0.0
25/12:30am 9.7 9.2 8.0 89 0.8 CALM 0 0 0 0 1010.6 1009.6 0.0
25/12:00am 9.8 9.0 8.2 90 0.8 N 2 7 1 4 1010.7 1009.7 0.0
 
Date/Time
EST
Temp
°C
App
Temp
°C
Dew
Point
°C
Rel
Hum
%
Delta-T
°C
Wind Press
QNH
hPa
Press
MSL
hPa
Rain since
9am
mm
Dir  Spd
km/h
Gust
km/h
Spd
kts
Gust
kts
24/11:30pm 10.5 9.2 9.1 91 0.7 S 6 7 3 4 1011.0 1010.0 0.0
24/11:00pm 10.3 8.5 8.1 86 1.1 S 7 9 4 5 1011.3 1010.3 0.0
24/10:30pm 11.5 10.0 9.1 85 1.2 SSE 7 9 4 5 1011.6 1010.5 0.0
24/10:00pm 11.1 10.6 8.0 81 1.5 CALM 0 6 0 3 1011.7 1010.6 0.0
24/09:30pm 11.5 11.1 8.2 80 1.7 CALM 0 0 0 0 1011.7 1010.6 0.0
24/09:00pm 13.0 12.4 9.1 77 2.0 NNE 2 6 1 3 1011.7 1010.6 0.0
24/08:30pm 13.7 13.5 9.0 73 2.4 CALM 0 0 0 0 1011.7 1010.6 0.0
24/08:00pm 14.4 14.2 9.2 71 2.7 CALM 0 2 0 1 1011.8 1010.7 0.0
24/07:30pm 15.5 14.1 9.4 67 3.2 ESE 7 9 4 5 1011.6 1010.5 0.0
24/07:00pm 17.0 15.4 8.9 59 4.3 SE 7 9 4 5 1011.3 1010.3 0.0
24/06:30pm 18.3 16.4 9.1 55 4.9 SSE 9 11 5 6 1010.9 1009.9 0.0
24/06:00pm 19.9 17.1 8.6 48 6.0 SW 13 17 7 9 1010.6 1009.6 0.0
24/05:30pm 22.7 19.3 6.0 34 8.6 W 13 17 7 9 1010.1 1009.0 0.0
24/05:00pm 23.8 19.6 5.7 31 9.4 WNW 17 22 9 12 1009.8 1008.7 0.0
24/04:30pm 24.2 19.2 4.6 28 10.0 WNW 20 30 11 16 1009.5 1008.4 0.0
24/04:00pm 24.4 20.8 6.6 32 9.4 NW 15 22 8 12 1009.3 1008.2 0.0
24/03:30pm 24.7 21.5 6.9 32 9.5 WNW 13 20 7 11 1009.5 1008.4 0.0
24/03:00pm 24.2 21.1 7.4 34 9.0 W 13 20 7 11 1009.7 1008.6 0.0
24/02:30pm 24.1 20.0 6.4 32 9.3 W 17 24 9 13 1010.1 1009.0 0.0
24/02:00pm 23.9 19.3 6.7 33 9.1 W 20 30 11 16 1010.4 1009.4 0.0
24/01:30pm 23.6 19.2 5.0 30 9.5 W 17 28 9 15 1010.9 1009.9 0.0
24/01:00pm 23.5 19.0 6.3 33 9.0 WNW 19 26 10 14 1011.6 1010.5 0.0
24/12:30pm 23.1 18.6 6.0 33 8.9 WNW 19 28 10 15 1012.0 1010.9 0.0
24/12:00pm 22.7 18.9 7.7 38 8.0 WNW 17 28 9 15 1012.5 1011.5 0.0
24/11:30am 22.1 17.5 5.5 34 8.5 WSW 19 26 10 14 1012.9 1011.9 0.0
24/11:00am 21.3 16.6 6.0 37 7.8 WNW 20 28 11 15 1013.4 1012.4 0.0
24/10:30am 21.0 16.6 6.5 39 7.5 WNW 19 33 10 18 1013.8 1012.8 0.0
24/10:00am 18.7 16.0 7.2 47 5.9 W 11 22 6 12 1014.3 1013.2 0.0
24/09:30am 18.5 16.0 8.2 51 5.4 NW 11 20 6 11 1014.5 1013.5 0.0
24/09:00am 16.4 16.0 8.1 58 4.3 CALM 0 6 0 3 1014.5 1013.5 0.0
24/08:30am 14.1 13.9 9.1 72 2.6 CALM 0 0 0 0 1014.6 1013.6 0.0
24/08:00am 12.1 10.7 9.7 85 1.2 NW 7 11 4 6 1014.6 1013.6 0.0
24/07:30am 9.8 9.3 7.9 88 0.9 CALM 0 0 0 0 1014.5 1013.5 0.0
24/07:00am 7.0 6.1 6.1 94 0.4 CALM 0 0 0 0 1014.4 1013.4 0.0
24/06:30am 4.9 3.6 4.3 96 0.3 CALM 0 0 0 0 1014.1 1013.0 0.0
24/06:00am 3.5 2.0 3.1 97 0.2 CALM 0 0 0 0 1014.0 1012.9 0.0
24/05:30am 3.4 1.9 2.8 96 0.2 CALM 0 0 0 0 1013.8 1012.8 0.0
24/05:00am 3.2 1.6 2.6 96 0.2 CALM 0 0 0 0 1013.3 1012.3 0.0
24/04:30am 3.8 2.3 3.2 96 0.3 CALM 0 7 0 4 1013.0 1012.0 0.0
24/04:00am 3.8 2.3 3.1 95 0.3 CALM 0 0 0 0 1012.7 1011.7 0.0
24/03:30am 4.3 2.9 3.7 96 0.3 CALM 0 0 0 0 1012.6 1011.6 0.0
24/03:00am 4.5 3.1 3.8 95 0.3 CALM 0 0 0 0 1012.6 1011.6 0.0
24/02:30am 4.8 3.5 4.1 95 0.3 CALM 0 0 0 0 1012.7 1011.7 0.0
24/02:00am 5.1 3.5 4.4 95 0.3 NNE 2 6 1 3 1012.9 1011.9 0.0
24/01:30am 5.7 4.5 4.7 93 0.4 CALM 0 0 0 0 1013.1 1012.1 0.0
24/01:00am 5.7 4.5 4.8 94 0.4 CALM 0 0 0 0 1013.4 1012.4 0.0
24/12:30am 6.0 4.8 4.8 92 0.5 CALM 0 0 0 0 1013.6 1012.6 0.0
24/12:00am 6.2 4.3 5.0 92 0.5 ESE 4 9 2 5 1013.7 1012.7 0.0
 
Date/Time
EST
Temp
°C
App
Temp
°C
Dew
Point
°C
Rel
Hum
%
Delta-T
°C
Wind Press
QNH
hPa
Press
MSL
hPa
Rain since
9am
mm
Dir  Spd
km/h
Gust
km/h
Spd
kts
Gust
kts
23/11:30pm 6.7 5.7 5.5 92 0.5 CALM 0 9 0 5 1013.5 1012.5 0.0
23/11:00pm 7.3 6.3 5.4 88 0.9 CALM 0 0 0 0 1013.4 1012.4 0.0
23/10:30pm 7.5 6.5 5.8 89 0.8 CALM 0 0 0 0 1013.6 1012.6 0.0
23/10:00pm 8.5 6.4 6.0 84 1.2 S 6 7 3 4 1013.8 1012.8 0.0
23/09:30pm 8.8 8.0 6.3 84 1.2 CALM 0 0 0 0 1014.1 1013.0 0.0
23/09:00pm 9.9 9.2 6.8 81 1.5 CALM 0 0 0 0 1014.1 1013.0 0.0
23/08:30pm 9.8 7.9 6.9 82 1.4 ENE 6 7 3 4 1014.1 1013.0 0.0
23/08:00pm 11.2 10.4 6.7 74 2.2 CALM 0 0 0 0 1013.8 1012.8 0.0
23/07:30pm 11.5 9.6 6.8 73 2.3 E 6 9 3 5 1013.6 1012.6 0.0
23/07:00pm 12.1 9.7 6.8 70 2.6 SW 9 11 5 6 1013.4 1012.4 0.0
23/06:30pm 14.2 12.1 6.6 60 3.8 SW 7 9 4 5 1013.0 1012.0 0.0
23/06:00pm 15.7 13.1 5.9 52 4.8 SW 9 13 5 7 1012.5 1011.5 0.0
23/05:30pm 17.9 14.1 5.8 45 6.0 SW 15 20 8 11 1012.2 1011.1 0.0
23/05:00pm 19.2 15.4 6.0 42 6.7 SW 15 22 8 12 1011.8 1010.7 0.0
23/04:30pm 19.9 15.9 6.6 42 6.8 WSW 17 22 9 12 1011.3 1010.3 0.0
23/04:00pm 20.4 16.5 7.1 42 6.9 WSW 17 24 9 13 1011.2 1010.2 0.0
23/03:30pm 20.6 16.1 6.9 41 7.1 SW 20 28 11 15 1011.1 1010.1 0.0
23/03:00pm 20.3 15.7 6.6 41 7.1 WSW 20 32 11 17 1011.3 1010.3 0.0
23/02:30pm 20.3 15.6 5.1 37 7.6 WSW 19 30 10 16 1011.6 1010.5 0.0
23/02:00pm 19.9 14.4 5.9 40 7.1 W 24 35 13 19 1011.8 1010.7 0.0
23/01:30pm 19.8 14.3 5.8 40 7.1 WSW 24 33 13 18 1012.1 1011.0 0.0
23/01:00pm 19.5 14.5 6.3 42 6.7 WSW 22 37 12 20 1012.5 1011.5 0.0
23/12:30pm 19.2 14.6 6.3 43 6.6 SW 20 35 11 19 1013.0 1012.0 0.0
23/12:00pm 18.9 13.7 5.4 41 6.7 WSW 22 35 12 19 1013.2 1012.2 0.0
23/11:30am 18.9 14.3 6.4 44 6.4 W 20 32 11 17 1013.7 1012.7 0.0
23/11:00am 17.5 13.1 4.8 43 6.2 WSW 17 30 9 16 1014.3 1013.2 0.0
23/10:30am 17.5 12.9 6.4 48 5.6 WSW 20 32 11 17 1014.7 1013.7 0.0
23/10:00am 16.7 12.3 6.5 51 5.1 SW 19 32 10 17 1014.9 1013.9 0.0
23/09:30am 16.5 12.3 7.4 55 4.6 W 19 32 10 17 1015.0 1014.0 0.0
23/09:00am 15.5 11.2 8.0 61 3.8 WSW 20 33 11 18 1015.2 1014.2 0.2
23/08:30am 14.2 11.0 8.4 68 3.0 WSW 15 20 8 11 1015.2 1014.2 0.2
23/08:00am 12.6 10.0 9.2 80 1.8 W 13 17 7 9 1015.2 1014.2 0.2
23/07:30am 10.9 9.5 9.7 92 0.6 N 7 9 4 5 1015.0 1014.0 0.2
23/07:00am 8.9 7.4 8.5 97 0.2 WNW 6 7 3 4 1014.5 1013.5 0.2
23/06:30am 7.1 6.4 6.8 98 0.1 CALM 0 0 0 0 1014.5 1013.5 0.2
23/06:00am 5.2 4.1 4.9 98 0.1 CALM 0 0 0 0 1014.4 1013.4 0.2
23/05:30am 4.9 3.7 4.5 97 0.2 CALM 0 0 0 0 1014.3 1013.2 0.2
23/05:00am 4.9 3.6 4.3 96 0.3 CALM 0 0 0 0 1014.0 1012.9 0.2
23/04:30am 5.2 4.0 4.6 96 0.3 CALM 0 0 0 0 1013.7 1012.7 0.2
23/04:00am 5.4 3.5 4.8 96 0.3 E 4 7 2 4 1013.4 1012.4 0.2
23/03:30am 5.5 4.3 4.8 95 0.3 CALM 0 0 0 0 1013.4 1012.4 0.2
23/03:00am 6.4 5.4 5.8 96 0.3 CALM 0 0 0 0 1013.5 1012.5 0.2
23/02:30am 6.2 5.2 5.5 95 0.3 CALM 0 0 0 0 1013.7 1012.7 0.2
23/02:00am 6.8 5.9 6.1 95 0.3 CALM 0 0 0 0 1014.0 1012.9 0.2
23/01:30am 6.8 5.9 6.1 95 0.3 CALM 0 0 0 0 1014.1 1013.0 0.2
23/01:00am 7.2 6.4 6.3 94 0.4 CALM 0 0 0 0 1014.4 1013.4 0.2
23/12:30am 7.6 6.8 6.5 93 0.5 CALM 0 0 0 0 1014.5 1013.5 0.2
23/12:00am 7.9 7.1 6.5 91 0.7 CALM 0 0 0 0 1014.8 1013.8 0.2
 
Date/Time
EST
Temp
°C
App
Temp
°C
Dew
Point
°C
Rel
Hum
%
Delta-T
°C
Wind Press
QNH
hPa
Press
MSL
hPa
Rain since
9am
mm
Dir  Spd
km/h
Gust
km/h
Spd
kts
Gust
kts
22/11:30pm 8.2 7.4 6.7 90 0.7 CALM 0 0 0 0 1014.8 1013.8 0.2
22/11:00pm 8.4 7.6 6.7 89 0.8 CALM 0 0 0 0 1014.8 1013.8 0.2
22/10:30pm 8.6 7.5 6.7 88 0.9 ESE 2 7 1 4 1014.7 1013.7 0.2
22/10:00pm 9.2 8.5 6.8 85 1.1 CALM 0 0 0 0 1014.7 1013.7 0.2
22/09:30pm 10.2 9.5 7.1 81 1.5 CALM 0 0 0 0 1014.8 1013.8 0.2
22/09:00pm 11.6 9.7 6.7 72 2.4 WSW 6 6 3 3 1014.8 1013.8 0.2
22/08:30pm 13.4 11.3 6.5 63 3.4 W 7 9 4 5 1014.8 1013.8 0.2
22/08:00pm 13.8 11.3 6.7 62 3.5 WSW 9 13 5 7 1014.7 1013.7 0.2
22/07:30pm 14.1 11.6 6.7 61 3.7 W 9 11 5 6 1014.6 1013.6 0.2
22/07:00pm 14.8 12.4 6.9 59 3.9 W 9 13 5 7 1014.5 1013.5 0.2
22/06:30pm 15.3 12.5 6.8 57 4.3 W 11 17 6 9 1014.2 1013.1 0.2
22/06:00pm 16.2 12.6 6.6 53 4.8 WSW 15 20 8 11 1013.6 1012.6 0.2
22/05:30pm 17.5 13.1 6.7 49 5.5 SW 19 28 10 15 1013.3 1012.3 0.2
22/05:00pm 18.5 13.8 6.0 44 6.3 SW 20 30 11 16 1012.7 1011.7 0.2
22/04:30pm 19.3 14.5 5.4 40 7.0 WSW 20 30 11 16 1012.3 1011.2 0.2
22/04:00pm 19.6 13.9 4.9 38 7.3 WSW 24 32 13 17 1012.0 1010.9 0.2
22/03:30pm 20.5 15.5 6.5 40 7.2 WSW 22 39 12 21 1011.8 1010.7 0.2
22/03:00pm 20.0 15.3 6.0 40 7.1 SW 20 30 11 16 1011.7 1010.6 0.2
22/02:30pm 19.9 13.6 5.9 40 7.1 SW 28 41 15 22 1011.8 1010.7 0.2
22/02:00pm 20.2 14.7 5.8 39 7.3 W 24 43 13 23 1011.9 1010.8 0.2
22/01:30pm 20.1 15.2 6.8 42 6.9 WSW 22 35 12 19 1012.3 1011.2 0.2
22/01:00pm 20.1 15.2 6.8 42 6.9 WSW 22 39 12 21 1012.5 1011.5 0.2
22/12:30pm 19.5 13.8 4.8 38 7.3 WSW 24 37 13 20 1012.7 1011.7 0.2
22/12:00pm 18.9 13.4 5.7 42 6.6 WSW 24 41 13 22 1013.2 1012.2 0.2
22/11:30am 19.0 14.2 7.4 47 6.0 SW 22 35 12 19 1013.5 1012.5 0.2
22/11:00am 18.1 12.8 6.6 47 5.8 WSW 24 32 13 17 1014.3 1013.2 0.2
22/10:30am 18.2 12.6 7.0 48 5.7 SW 26 35 14 19 1014.6 1013.6 0.2

Latest Capital City Observations: Canberra | Sydney | Melbourne | Brisbane | Adelaide | Perth | Hobart | Darwin

Other Formats:

Comma delimited format used in spreadsheet applications
http://www.bom.gov.au/fwo/IDQ60901/IDQ60901.94549.axf

JavaScript Object Notation format (JSON) in row-major order
http://www.bom.gov.au/fwo/IDQ60901/IDQ60901.94549.json